Amherst, New Hampshire
Current Conditions -  °F | °C
As of 3:51 AM on Wednesday 22 Oct 2014 (Local Time) from KASH Reporting Station
Overcast Overcast  
Wind Chill: 10°   Ceiling: 800
Heat Index: 10°   Visibility: 10mi
Dew Point:   Wind: 6mph
Humidity: 92%   Direction: 10°N
Pressure: 30.01"   Gusts: NA
Location:  42.86°N, 71.63°W
Report Text: KASH 220751Z AUTO 01005KT 10SM OVC008 10/09 A3001 RMK AO2 T01000088 SLP412 $
Loading
Personal Weather Stations






























Interactive Weather Map New forecast layout! Learn more

10-Day Weather Forecast

Advertisements
Track Severe Weather on mobile